createdAt,value
2022-08-08T00:02:30.283Z,19.32
2022-08-08T00:07:58.179Z,19.16
2022-08-08T00:14:17.225Z,19.13
2022-08-08T00:18:57.640Z,19.09
2022-08-08T00:24:04.582Z,19.08
2022-08-08T00:29:46.931Z,19.37
2022-08-08T00:35:10.340Z,19.34
2022-08-08T00:41:09.730Z,19.18
2022-08-08T00:46:32.150Z,19.33
2022-08-08T00:52:20.141Z,19.33
2022-08-08T00:57:36.267Z,19.16
2022-08-08T01:04:02.569Z,18.99
2022-08-08T01:08:57.519Z,18.84
2022-08-08T01:14:53.480Z,18.90
2022-08-08T01:20:21.769Z,18.88
2022-08-08T01:26:02.272Z,18.53
2022-08-08T01:32:17.327Z,18.52
2022-08-08T01:37:56.901Z,18.44
2022-08-08T01:43:34.651Z,18.48
2022-08-08T01:49:37.865Z,18.52
2022-08-08T01:56:27.161Z,18.34
2022-08-08T02:01:17.336Z,18.33
2022-08-08T02:12:33.169Z,18.23
2022-08-08T02:18:19.307Z,18.32
2022-08-08T02:23:35.177Z,18.43
2022-08-08T02:29:18.976Z,18.25
2022-08-08T02:35:08.856Z,18.09
2022-08-08T02:46:26.768Z,17.90
2022-08-08T02:51:59.715Z,17.83
2022-08-08T02:57:23.891Z,17.87
2022-08-08T03:03:07.950Z,17.60
2022-08-08T03:08:51.696Z,17.84
2022-08-08T03:16:01.029Z,17.81
2022-08-08T03:20:00.187Z,17.62
2022-08-08T03:25:17.797Z,17.61
2022-08-08T03:30:44.327Z,17.78
2022-08-08T03:36:19.488Z,17.59
2022-08-08T03:42:26.181Z,17.69
2022-08-08T03:47:19.823Z,17.65
2022-08-08T03:52:26.940Z,17.69
2022-08-08T03:58:29.910Z,17.75
2022-08-08T04:03:03.445Z,17.82
2022-08-08T04:08:08.055Z,17.75
2022-08-08T04:13:29.145Z,17.61
2022-08-08T04:18:51.888Z,17.52
2022-08-08T04:24:28.194Z,17.39
2022-08-08T04:29:55.418Z,17.54
2022-08-08T04:35:05.007Z,17.47
2022-08-08T04:40:13.058Z,17.45
2022-08-08T04:45:22.510Z,17.35
2022-08-08T04:50:34.221Z,17.60
2022-08-08T04:55:55.308Z,17.33
2022-08-08T05:01:06.024Z,17.22
2022-08-08T05:06:30.468Z,17.48
2022-08-08T05:11:39.115Z,17.68
2022-08-08T05:16:51.310Z,17.74
2022-08-08T05:22:00.637Z,17.61
2022-08-08T05:27:08.235Z,17.90
2022-08-08T05:32:33.074Z,18.17
2022-08-08T05:37:53.385Z,18.04
2022-08-08T05:43:38.379Z,18.40
2022-08-08T05:48:36.298Z,18.76
2022-08-08T05:54:25.954Z,18.77
2022-08-08T05:59:59.552Z,19.01
2022-08-08T06:04:54.834Z,19.32
2022-08-08T06:10:03.272Z,19.55
2022-08-08T06:15:16.049Z,19.85
2022-08-08T06:20:21.008Z,21.87
2022-08-08T06:26:35.992Z,22.44
2022-08-08T06:30:51.930Z,23.04
2022-08-08T06:36:15.501Z,23.53
2022-08-08T06:41:46.472Z,24.69
2022-08-08T06:46:55.029Z,25.21
2022-08-08T06:52:01.550Z,24.95
2022-08-08T06:57:05.968Z,25.19
2022-08-08T07:02:28.744Z,26.44
2022-08-08T07:07:43.682Z,26.57
2022-08-08T07:13:01.111Z,26.96
2022-08-08T07:18:36.516Z,27.78
2022-08-08T07:24:01.388Z,27.91
2022-08-08T07:29:20.483Z,28.76
2022-08-08T07:34:48.340Z,28.80
2022-08-08T07:40:05.391Z,28.89
2022-08-08T07:45:34.349Z,30.07
2022-08-08T07:50:40.061Z,30.41
2022-08-08T07:56:03.530Z,31.09
2022-08-08T08:01:10.211Z,31.36
2022-08-08T08:06:18.850Z,31.36
2022-08-08T08:11:38.427Z,31.33
2022-08-08T08:16:56.991Z,29.52
2022-08-08T08:22:31.474Z,31.05
2022-08-08T08:27:39.229Z,28.65
2022-08-08T08:32:51.925Z,28.04
2022-08-08T08:38:17.487Z,31.16
2022-08-08T08:43:31.830Z,31.47
2022-08-08T08:48:53.791Z,29.19
2022-08-08T08:54:00.919Z,27.98
2022-08-08T08:59:58.902Z,30.09
2022-08-08T09:05:06.270Z,31.40
2022-08-08T09:10:17.254Z,32.51
2022-08-08T09:15:42.402Z,32.94
2022-08-08T09:22:00.536Z,34.65
2022-08-08T09:26:39.499Z,33.91
2022-08-08T09:31:56.550Z,30.64
2022-08-08T09:37:57.865Z,30.94
2022-08-08T09:43:24.126Z,31.63
2022-08-08T09:48:43.086Z,34.43
2022-08-08T09:54:08.479Z,32.00
2022-08-08T10:04:52.554Z,33.06
2022-08-08T10:10:00.759Z,33.06
2022-08-08T10:15:17.899Z,33.38
2022-08-08T10:20:25.975Z,33.92
2022-08-08T10:26:03.868Z,34.55
2022-08-08T10:31:13.489Z,33.34
2022-08-08T10:36:20.619Z,33.81
2022-08-08T10:41:59.008Z,30.87
2022-08-08T10:47:20.975Z,29.87
2022-08-08T10:52:36.161Z,28.69
2022-08-08T10:58:01.631Z,28.32
2022-08-08T11:03:52.884Z,27.53
2022-08-08T11:09:20.188Z,29.69
2022-08-08T11:14:26.365Z,29.76
2022-08-08T11:19:31.795Z,29.31
2022-08-08T11:24:59.982Z,29.87
2022-08-08T11:30:24.868Z,30.75
2022-08-08T11:35:48.130Z,30.07
2022-08-08T11:41:11.051Z,30.64
2022-08-08T11:46:18.417Z,30.14
2022-08-08T11:51:29.525Z,29.98
2022-08-08T11:57:34.988Z,31.88
2022-08-08T12:02:56.278Z,28.70
2022-08-08T12:08:04.381Z,28.07
2022-08-08T12:13:10.229Z,29.37
2022-08-08T12:18:24.587Z,29.92
2022-08-08T12:23:40.307Z,30.37
2022-08-08T12:29:40.640Z,28.10
2022-08-08T12:35:13.274Z,28.81
2022-08-08T12:40:54.836Z,28.17
2022-08-08T12:46:25.177Z,29.71
2022-08-08T12:51:50.100Z,28.46
2022-08-08T12:57:12.098Z,29.44
2022-08-08T13:02:35.806Z,29.70
2022-08-08T13:08:03.517Z,28.33
2022-08-08T13:13:34.791Z,28.32
2022-08-08T13:18:55.775Z,28.42
2022-08-08T13:24:06.816Z,27.71
2022-08-08T13:29:11.689Z,28.73
2022-08-08T13:34:33.184Z,30.83
2022-08-08T13:39:37.076Z,30.83
2022-08-08T13:44:41.076Z,29.14
2022-08-08T13:50:36.532Z,31.11
2022-08-08T13:55:36.430Z,28.81
2022-08-08T14:01:15.761Z,28.75
2022-08-08T14:06:20.512Z,28.27
2022-08-08T14:11:54.347Z,29.24
2022-08-08T14:17:22.429Z,30.13
2022-08-08T14:22:42.087Z,29.53
2022-08-08T14:28:10.205Z,29.82
2022-08-08T14:33:36.283Z,30.01
2022-08-08T14:38:52.545Z,28.56
2022-08-08T14:44:11.690Z,28.69
2022-08-08T14:49:20.621Z,28.22
2022-08-08T14:54:52.368Z,28.89
2022-08-08T14:59:56.216Z,30.19
2022-08-08T15:05:08.354Z,29.35
2022-08-08T15:10:15.243Z,28.76
2022-08-08T15:16:01.296Z,29.36
2022-08-08T15:20:58.950Z,29.65
2022-08-08T15:26:01.129Z,28.62
2022-08-08T15:31:04.169Z,28.73
2022-08-08T15:36:28.588Z,28.93
2022-08-08T15:41:43.808Z,29.11
2022-08-08T15:47:06.768Z,29.39
2022-08-08T15:52:36.469Z,28.77
2022-08-08T15:57:41.569Z,28.79
2022-08-08T16:02:50.831Z,28.99
2022-08-08T16:07:54.796Z,28.15
2022-08-08T16:13:34.048Z,27.86
2022-08-08T16:18:58.207Z,28.13
2022-08-08T16:24:15.378Z,28.05
2022-08-08T16:30:12.963Z,28.39
2022-08-08T16:35:40.549Z,27.62
2022-08-08T16:40:50.046Z,27.26
2022-08-08T16:46:43.735Z,27.18
2022-08-08T16:55:03.023Z,27.40
2022-08-08T16:58:14.874Z,27.52
2022-08-08T17:03:05.687Z,27.15
2022-08-08T17:08:07.897Z,27.10
2022-08-08T17:13:11.768Z,27.47
2022-08-08T17:18:15.824Z,27.51
2022-08-08T17:23:58.078Z,27.13
2022-08-08T17:28:41.062Z,26.40
2022-08-08T17:34:53.906Z,26.34
2022-08-08T17:39:45.782Z,26.89
2022-08-08T17:50:01.233Z,26.73
2022-08-08T17:56:08.015Z,27.39
2022-08-08T18:00:54.488Z,27.40
2022-08-08T18:06:30.726Z,27.41
2022-08-08T18:11:36.443Z,27.04
2022-08-08T18:16:57.397Z,27.02
2022-08-08T18:22:06.049Z,26.74
2022-08-08T18:27:29.032Z,26.75
2022-08-08T18:32:52.398Z,26.77
2022-08-08T18:37:56.845Z,26.56
2022-08-08T18:43:01.370Z,26.48
2022-08-08T18:48:37.542Z,26.24
2022-08-08T18:54:03.376Z,26.02
2022-08-08T18:59:02.553Z,25.92
2022-08-08T19:04:10.812Z,26.04
2022-08-08T19:09:14.985Z,25.87
2022-08-08T19:14:20.372Z,25.96
2022-08-08T19:19:26.151Z,25.76
2022-08-08T19:25:20.377Z,25.63
2022-08-08T19:30:18.140Z,25.45
2022-08-08T19:36:08.711Z,25.35
2022-08-08T19:41:09.965Z,25.09
2022-08-08T19:46:23.403Z,24.97
2022-08-08T19:51:46.712Z,25.10
2022-08-08T19:56:51.863Z,25.12
2022-08-08T20:02:02.762Z,25.15
2022-08-08T20:08:28.246Z,25.22
2022-08-08T20:12:32.893Z,25.19
2022-08-08T20:17:39.675Z,24.91
2022-08-08T20:23:04.321Z,24.86
2022-08-08T20:28:33.369Z,24.86
2022-08-08T20:34:02.019Z,24.73
2022-08-08T20:38:58.048Z,24.65
2022-08-08T20:44:18.689Z,24.41
2022-08-08T20:49:21.881Z,24.42
2022-08-08T20:54:44.278Z,24.26
2022-08-08T21:00:06.319Z,24.41
2022-08-08T21:05:12.389Z,24.21
2022-08-08T21:10:16.693Z,24.43
2022-08-08T21:16:06.029Z,24.24
2022-08-08T21:20:59.888Z,24.47
2022-08-08T21:31:24.152Z,24.08
2022-08-08T21:36:53.948Z,23.30
2022-08-08T21:41:59.299Z,23.25
2022-08-08T21:48:06.923Z,23.41
2022-08-08T21:54:36.813Z,23.49
2022-08-08T21:58:04.130Z,23.02
2022-08-08T22:03:27.257Z,22.92
2022-08-08T22:08:50.345Z,22.67
2022-08-08T22:14:11.252Z,22.59
2022-08-08T22:19:15.437Z,22.45
2022-08-08T22:24:37.288Z,22.46
2022-08-08T22:29:59.192Z,22.52
2022-08-08T22:35:03.635Z,22.35
2022-08-08T22:40:24.546Z,22.17
2022-08-08T22:45:53.245Z,22.18
2022-08-08T22:50:55.439Z,21.98
2022-08-08T22:56:01.571Z,21.98
2022-08-08T23:01:26.539Z,21.90
2022-08-08T23:06:29.069Z,22.44
2022-08-08T23:12:18.039Z,22.29
2022-08-08T23:17:12.429Z,22.23
2022-08-08T23:22:37.439Z,22.15
2022-08-08T23:27:46.271Z,22.11
2022-08-08T23:32:49.636Z,22.39
2022-08-08T23:38:03.039Z,22.61
2022-08-08T23:43:06.041Z,22.64
2022-08-08T23:49:00.922Z,22.46
2022-08-08T23:54:06.192Z,22.36
2022-08-08T23:59:16.823Z,21.82
